Time;durP1;ratioP1;P1;durP2;ratioP2;P2;SDS_P1;SDS_P2;PMS_P1;PMS_P2;Temp;Humidity;BMP_temperature;BMP_pressure;BME280_temperature;BME280_humidity;BME280_pressure;Samples;Min_cycle;Max_cycle;Signal;HPM_P1;HPM_P2
2023/05/26 00:01:46;;;;;;;4.82;3.65;;;;;;;;;;5036039;28;20576;-78
2023/05/26 00:04:16;;;;;;;7.38;3.92;;;;;;;;;;5012942;28;20046;-78
2023/05/26 00:06:43;;;;;;;6.95;3.75;;;;;;;;;;5029561;28;20044;-78
2023/05/26 00:09:09;;;;;;;7.97;3.67;;;;;;;;;;5030548;28;20131;-78
2023/05/26 00:11:34;;;;;;;4.45;2.65;;;;;;;;;;5035494;28;20132;-78
2023/05/26 00:14:00;;;;;;;6.18;2.95;;;;;;;;;;5015487;28;20095;-78
2023/05/26 00:16:25;;;;;;;8.90;3.95;;;;;;;;;;5007815;28;20059;-77
2023/05/26 00:18:50;;;;;;;9.00;3.65;;;;;;;;;;5015717;28;20119;-77
2023/05/26 00:21:16;;;;;;;7.03;3.30;;;;;;;;;;5003989;28;20041;-77
2023/05/26 00:23:41;;;;;;;7.10;3.78;;;;;;;;;;5012765;28;20091;-77
2023/05/26 00:26:07;;;;;;;6.60;3.38;;;;;;;;;;5029017;28;20065;-77
2023/05/26 00:28:32;;;;;;;7.47;3.20;;;;;;;;;;5037364;28;20064;-78
2023/05/26 00:30:58;;;;;;;8.00;3.22;;;;;;;;;;5013778;28;20037;-78
2023/05/26 00:33:23;;;;;;;6.65;3.38;;;;;;;;;;5046669;28;20408;-78
2023/05/26 00:35:49;;;;;;;7.00;3.17;;;;;;;;;;5037600;28;20040;-78
2023/05/26 00:38:14;;;;;;;7.40;3.33;;;;;;;;;;5025861;28;20568;-78
2023/05/26 00:40:39;;;;;;;9.25;4.38;;;;;;;;;;5033283;28;20159;-79
2023/05/26 00:43:05;;;;;;;10.68;3.67;;;;;;;;;;5019216;28;20041;-78
2023/05/26 00:45:30;;;;;;;6.40;3.20;;;;;;;;;;5014286;28;20041;-78
2023/05/26 00:47:55;;;;;;;8.57;3.90;;;;;;;;;;5031490;28;20350;-78
2023/05/26 00:50:22;;;;;;;5.10;3.63;;;;;;;;;;5039253;28;20029;-77
2023/05/26 00:52:47;;;;;;;5.03;2.90;;;;;;;;;;5027225;28;20123;-77
2023/05/26 00:55:13;;;;;;;5.65;3.40;;;;;;;;;;5040535;28;20056;-77
2023/05/26 00:57:39;;;;;;;4.90;3.10;;;;;;;;;;5031694;28;20037;-77
2023/05/26 01:00:11;;;;;;;5.95;2.90;;;;;;;;;;5012372;28;20380;-77
2023/05/26 01:02:39;;;;;;;5.72;3.20;;;;;;;;;;5024477;28;20110;-77
2023/05/26 01:05:06;;;;;;;4.53;2.95;;;;;;;;;;5028045;28;20040;-77
2023/05/26 01:07:32;;;;;;;7.35;3.13;;;;;;;;;;5026486;28;20075;-77
2023/05/26 01:09:57;;;;;;;5.28;2.80;;;;;;;;;;5031793;28;20076;-77
2023/05/26 01:12:35;;;;;;;5.35;3.03;;;;;;;;;;5023116;28;20099;-77
2023/05/26 01:15:06;;;;;;;7.65;3.28;;;;;;;;;;5015547;28;20049;-77
2023/05/26 01:17:44;;;;;;;7.05;2.83;;;;;;;;;;5023215;28;20183;-78
2023/05/26 01:20:26;;;;;;;7.25;3.13;;;;;;;;;;5031273;28;20043;-77
2023/05/26 01:23:18;;;;;;;6.78;2.90;;;;;;;;;;5023884;28;20036;-77
2023/05/26 01:26:03;;;;;;;6.50;2.80;;;;;;;;;;5014674;28;20113;-77
2023/05/26 01:28:30;;;;;;;6.78;2.20;;;;;;;;;;5046402;28;20093;-77
2023/05/26 01:30:57;;;;;;;4.25;2.53;;;;;;;;;;5017317;28;20037;-78
2023/05/26 01:33:22;;;;;;;8.25;2.75;;;;;;;;;;5038661;28;20037;-77
2023/05/26 01:35:48;;;;;;;8.50;3.70;;;;;;;;;;5031358;28;20524;-77
2023/05/26 01:38:14;;;;;;;6.72;3.00;;;;;;;;;;5019501;28;20041;-78
2023/05/26 01:40:42;;;;;;;9.68;3.55;;;;;;;;;;5031563;28;20102;-77
2023/05/26 01:43:29;;;;;;;10.48;3.83;;;;;;;;;;5030053;28;20040;-77
2023/05/26 01:46:01;;;;;;;6.10;2.92;;;;;;;;;;4992004;28;20070;-77
2023/05/26 01:48:28;;;;;;;10.43;3.50;;;;;;;;;;5028883;28;20037;-77
2023/05/26 01:50:58;;;;;;;15.27;4.05;;;;;;;;;;5029560;28;20033;-77
2023/05/26 01:53:29;;;;;;;10.87;3.53;;;;;;;;;;5020485;28;20029;-77
2023/05/26 01:55:57;;;;;;;4.38;2.60;;;;;;;;;;5035661;28;20036;-77
2023/05/26 01:58:24;;;;;;;5.22;3.03;;;;;;;;;;5023453;28;20185;-78
2023/05/26 02:00:50;;;;;;;4.55;2.50;;;;;;;;;;5029750;28;20547;-77
2023/05/26 02:03:16;;;;;;;10.32;3.85;;;;;;;;;;5032260;28;20686;-77
2023/05/26 02:05:42;;;;;;;8.40;4.03;;;;;;;;;;5015956;28;20034;-77
2023/05/26 02:08:10;;;;;;;6.65;3.17;;;;;;;;;;5035518;28;20044;-77
2023/05/26 02:10:35;;;;;;;10.25;3.83;;;;;;;;;;5011239;28;20087;-77
2023/05/26 02:13:00;;;;;;;11.68;3.60;;;;;;;;;;5030701;28;20036;-77
2023/05/26 02:15:26;;;;;;;8.48;3.25;;;;;;;;;;5028969;28;20095;-78
2023/05/26 02:17:54;;;;;;;10.65;3.80;;;;;;;;;;5004230;28;20041;-77
2023/05/26 02:20:20;;;;;;;11.65;4.32;;;;;;;;;;5028199;28;20044;-77
2023/05/26 02:22:45;;;;;;;6.03;2.75;;;;;;;;;;5031086;28;20051;-78
2023/05/26 02:25:11;;;;;;;10.38;4.00;;;;;;;;;;5017611;28;20033;-78
2023/05/26 02:27:36;;;;;;;12.50;4.65;;;;;;;;;;5019189;28;20087;-79
2023/05/26 02:30:02;;;;;;;9.90;3.40;;;;;;;;;;5016062;28;20037;-78
2023/05/26 02:32:29;;;;;;;12.38;4.00;;;;;;;;;;5015483;28;20082;-78
2023/05/26 02:34:54;;;;;;;14.15;4.00;;;;;;;;;;5039206;28;20719;-78
2023/05/26 02:37:20;;;;;;;9.60;4.63;;;;;;;;;;5036125;28;20041;-78
2023/05/26 02:39:46;;;;;;;10.45;4.05;;;;;;;;;;5019058;28;20068;-77
2023/05/26 02:42:11;;;;;;;10.65;3.83;;;;;;;;;;5029662;28;20119;-77
2023/05/26 02:44:36;;;;;;;11.45;4.00;;;;;;;;;;5031714;28;20420;-77
2023/05/26 02:47:02;;;;;;;11.27;4.15;;;;;;;;;;5020867;28;20067;-77
2023/05/26 02:49:27;;;;;;;13.98;4.40;;;;;;;;;;5030240;28;20094;-77
2023/05/26 02:51:53;;;;;;;15.43;4.13;;;;;;;;;;5029952;28;20400;-78
2023/05/26 02:54:18;;;;;;;3.60;2.38;;;;;;;;;;5018486;28;20036;-79
2023/05/26 02:56:44;;;;;;;14.52;4.97;;;;;;;;;;5035365;28;20032;-79
2023/05/26 02:59:09;;;;;;;8.95;3.90;;;;;;;;;;5029935;28;20536;-78
2023/05/26 03:01:35;;;;;;;10.05;4.35;;;;;;;;;;5015163;28;20068;-78
2023/05/26 03:04:01;;;;;;;10.68;4.50;;;;;;;;;;5025784;28;20037;-78
2023/05/26 03:06:27;;;;;;;11.88;4.72;;;;;;;;;;5035429;28;20069;-79
2023/05/26 03:08:52;;;;;;;15.35;5.05;;;;;;;;;;5025648;28;20046;-78
2023/05/26 03:11:17;;;;;;;8.52;4.28;;;;;;;;;;5027226;28;20136;-78
2023/05/26 03:13:43;;;;;;;11.48;4.75;;;;;;;;;;5032913;28;20033;-78
2023/05/26 03:16:08;;;;;;;13.32;4.82;;;;;;;;;;5017755;28;20538;-78
2023/05/26 03:18:33;;;;;;;11.45;5.03;;;;;;;;;;5032448;28;20036;-78
2023/05/26 03:20:59;;;;;;;10.45;4.82;;;;;;;;;;5029711;28;20873;-78
2023/05/26 03:23:24;;;;;;;11.40;5.32;;;;;;;;;;5028194;28;20044;-79
2023/05/26 03:25:50;;;;;;;11.15;4.40;;;;;;;;;;5035165;28;20063;-79
2023/05/26 03:28:16;;;;;;;11.57;5.57;;;;;;;;;;5017504;28;20115;-78
2023/05/26 03:30:41;;;;;;;7.50;4.32;;;;;;;;;;5019853;28;20058;-78
2023/05/26 03:33:07;;;;;;;11.70;5.20;;;;;;;;;;5030430;28;20028;-78
2023/05/26 03:35:32;;;;;;;10.80;4.68;;;;;;;;;;5025134;28;20443;-78
2023/05/26 03:37:58;;;;;;;8.82;4.55;;;;;;;;;;5035947;28;20046;-77
2023/05/26 03:40:23;;;;;;;9.98;4.60;;;;;;;;;;5037558;28;20040;-78
2023/05/26 03:42:48;;;;;;;8.82;4.45;;;;;;;;;;4983563;28;20072;-78
2023/05/26 03:45:15;;;;;;;9.60;4.40;;;;;;;;;;5025703;28;20136;-79
2023/05/26 03:47:41;;;;;;;9.50;5.30;;;;;;;;;;5023340;28;20120;-80
2023/05/26 03:50:06;;;;;;;10.20;4.53;;;;;;;;;;5025862;28;20115;-79
2023/05/26 03:52:32;;;;;;;12.35;5.15;;;;;;;;;;5016014;28;20521;-80
2023/05/26 03:54:57;;;;;;;12.18;5.15;;;;;;;;;;5030265;28;20405;-79
2023/05/26 03:57:23;;;;;;;8.82;4.75;;;;;;;;;;5025931;28;20499;-78
2023/05/26 03:59:48;;;;;;;9.13;5.00;;;;;;;;;;5023540;28;20034;-78
2023/05/26 04:02:14;;;;;;;11.25;4.95;;;;;;;;;;5038994;28;20049;-78
2023/05/26 04:04:39;;;;;;;6.57;4.55;;;;;;;;;;5011426;28;20107;-78
2023/05/26 04:07:05;;;;;;;9.40;5.03;;;;;;;;;;5024338;28;20121;-78
2023/05/26 04:09:31;;;;;;;10.23;4.97;;;;;;;;;;5015743;28;20068;-77
2023/05/26 04:11:56;;;;;;;10.23;5.25;;;;;;;;;;5017397;28;20444;-78
2023/05/26 04:14:21;;;;;;;10.95;4.30;;;;;;;;;;5031906;28;20519;-79
2023/05/26 04:16:47;;;;;;;11.05;5.32;;;;;;;;;;5024637;28;20136;-78
2023/05/26 04:19:12;;;;;;;12.05;5.93;;;;;;;;;;5018470;28;20100;-79
2023/05/26 04:21:37;;;;;;;13.25;5.63;;;;;;;;;;5019454;28;20033;-78
2023/05/26 04:24:03;;;;;;;11.02;5.60;;;;;;;;;;5036733;28;20033;-78
2023/05/26 04:26:33;;;;;;;14.77;6.22;;;;;;;;;;5000543;28;20036;-78
2023/05/26 04:28:59;;;;;;;16.08;7.05;;;;;;;;;;5025033;28;20049;-78
2023/05/26 04:31:28;;;;;;;13.85;6.85;;;;;;;;;;5031889;28;20448;-77
2023/05/26 04:33:56;;;;;;;14.65;7.35;;;;;;;;;;4997446;28;20042;-78
2023/05/26 04:36:23;;;;;;;14.88;7.50;;;;;;;;;;5028081;28;20056;-77
2023/05/26 04:38:48;;;;;;;15.95;6.93;;;;;;;;;;5012850;28;20118;-77
2023/05/26 04:41:15;;;;;;;11.93;6.45;;;;;;;;;;5006928;28;20497;-78
2023/05/26 04:43:40;;;;;;;14.13;6.55;;;;;;;;;;5012024;28;20761;-77
2023/05/26 04:46:06;;;;;;;11.95;5.70;;;;;;;;;;5019235;28;20055;-77
2023/05/26 04:48:32;;;;;;;13.57;6.00;;;;;;;;;;5027297;28;20052;-77
2023/05/26 04:50:57;;;;;;;11.02;5.38;;;;;;;;;;5028428;28;20119;-77
2023/05/26 04:53:22;;;;;;;13.68;5.55;;;;;;;;;;5011447;28;20559;-76
2023/05/26 04:55:48;;;;;;;14.10;5.88;;;;;;;;;;5030884;28;20037;-77
2023/05/26 04:58:14;;;;;;;11.60;5.47;;;;;;;;;;5032432;28;20076;-78
2023/05/26 05:00:40;;;;;;;11.45;5.72;;;;;;;;;;5014784;28;20060;-77
2023/05/26 05:03:05;;;;;;;10.93;5.63;;;;;;;;;;5042043;28;20099;-78
2023/05/26 05:05:31;;;;;;;11.35;5.63;;;;;;;;;;5009265;28;20053;-77
2023/05/26 05:07:57;;;;;;;11.95;5.68;;;;;;;;;;5030080;28;20048;-77
2023/05/26 05:10:22;;;;;;;8.48;5.22;;;;;;;;;;5029550;28;20139;-79
2023/05/26 05:12:48;;;;;;;9.85;5.47;;;;;;;;;;5032783;28;20102;-79
2023/05/26 05:15:13;;;;;;;13.98;5.35;;;;;;;;;;5025518;28;20152;-80
2023/05/26 05:17:39;;;;;;;6.95;4.15;;;;;;;;;;5027278;28;20041;-78
2023/05/26 05:20:06;;;;;;;12.60;5.32;;;;;;;;;;5041637;28;20057;-77
2023/05/26 05:22:32;;;;;;;13.80;5.35;;;;;;;;;;5015390;28;20492;-77
2023/05/26 05:24:57;;;;;;;12.98;5.28;;;;;;;;;;5023971;28;20113;-77
2023/05/26 05:27:22;;;;;;;7.22;3.60;;;;;;;;;;5018564;28;20129;-79
2023/05/26 05:29:48;;;;;;;11.07;4.20;;;;;;;;;;5007313;28;20548;-78
2023/05/26 05:32:13;;;;;;;10.75;5.57;;;;;;;;;;5032723;28;20049;-78
2023/05/26 05:34:39;;;;;;;15.23;5.82;;;;;;;;;;5027037;28;20048;-77
2023/05/26 05:37:05;;;;;;;15.25;5.55;;;;;;;;;;5000466;28;20586;-78
2023/05/26 05:39:30;;;;;;;15.38;6.07;;;;;;;;;;5040088;28;20048;-77
2023/05/26 05:41:55;;;;;;;13.90;5.50;;;;;;;;;;5044606;28;20040;-77
2023/05/26 05:44:21;;;;;;;16.17;6.30;;;;;;;;;;5009299;28;20052;-78
2023/05/26 05:46:46;;;;;;;16.67;5.97;;;;;;;;;;5007608;28;20144;-78
2023/05/26 05:49:11;;;;;;;15.18;4.80;;;;;;;;;;5030350;28;20037;-78
2023/05/26 05:51:37;;;;;;;17.98;5.20;;;;;;;;;;5042369;28;20159;-78
2023/05/26 05:54:02;;;;;;;15.05;5.03;;;;;;;;;;5040188;28;20041;-78
2023/05/26 05:56:28;;;;;;;15.15;5.05;;;;;;;;;;5017686;28;20133;-78
2023/05/26 05:58:53;;;;;;;15.70;5.15;;;;;;;;;;5031688;28;20041;-78
2023/05/26 06:01:19;;;;;;;15.88;5.18;;;;;;;;;;5031322;28;20040;-78
2023/05/26 06:03:44;;;;;;;13.02;5.00;;;;;;;;;;5028528;28;20167;-78
2023/05/26 06:06:10;;;;;;;14.05;4.57;;;;;;;;;;5022027;28;20058;-78
2023/05/26 06:08:35;;;;;;;13.25;5.63;;;;;;;;;;5034963;28;20045;-78
2023/05/26 06:11:02;;;;;;;14.27;6.00;;;;;;;;;;5022192;28;20032;-78
2023/05/26 06:13:27;;;;;;;12.52;4.85;;;;;;;;;;5038413;28;20036;-78
2023/05/26 06:15:52;;;;;;;10.90;5.07;;;;;;;;;;5035134;28;20063;-79
2023/05/26 06:18:18;;;;;;;14.45;5.53;;;;;;;;;;5017775;28;20037;-78
2023/05/26 06:20:43;;;;;;;14.88;5.63;;;;;;;;;;5033187;28;20039;-78
2023/05/26 06:23:08;;;;;;;19.27;6.07;;;;;;;;;;5035788;28;20032;-78
2023/05/26 06:25:34;;;;;;;13.30;5.60;;;;;;;;;;5032431;28;20036;-78
2023/05/26 06:27:59;;;;;;;13.75;6.18;;;;;;;;;;5031636;28;20041;-78
2023/05/26 06:30:24;;;;;;;15.95;6.45;;;;;;;;;;5035371;28;20043;-78
2023/05/26 06:32:50;;;;;;;15.60;5.97;;;;;;;;;;5021017;28;20177;-78
2023/05/26 06:35:15;;;;;;;16.40;4.22;;;;;;;;;;5026899;28;20036;-78
2023/05/26 06:37:40;;;;;;;14.52;5.53;;;;;;;;;;5034645;28;20033;-78
2023/05/26 06:40:06;;;;;;;9.50;4.32;;;;;;;;;;5024091;28;20143;-78
2023/05/26 06:42:32;;;;;;;13.02;5.28;;;;;;;;;;5033995;28;20063;-78
2023/05/26 06:44:57;;;;;;;12.00;4.72;;;;;;;;;;5002037;28;20054;-78
2023/05/26 06:47:23;;;;;;;13.35;4.97;;;;;;;;;;5017758;28;20044;-78
2023/05/26 06:49:49;;;;;;;9.50;3.90;;;;;;;;;;5033430;28;20035;-78
2023/05/26 06:52:15;;;;;;;12.25;5.10;;;;;;;;;;5033314;28;20040;-79
2023/05/26 06:54:41;;;;;;;15.65;5.32;;;;;;;;;;5010309;28;20040;-79
2023/05/26 06:57:06;;;;;;;14.82;5.45;;;;;;;;;;5034620;28;20585;-79
2023/05/26 06:59:32;;;;;;;13.95;5.43;;;;;;;;;;5041652;28;20041;-79
2023/05/26 07:01:57;;;;;;;11.88;5.05;;;;;;;;;;5017436;28;20047;-79
2023/05/26 07:04:22;;;;;;;10.38;4.50;;;;;;;;;;5037408;28;20045;-78
2023/05/26 07:06:48;;;;;;;16.95;5.88;;;;;;;;;;5031344;28;20040;-79
2023/05/26 07:09:13;;;;;;;13.25;4.80;;;;;;;;;;5028644;28;20033;-78
2023/05/26 07:11:38;;;;;;;11.88;4.72;;;;;;;;;;5033193;28;20045;-78
2023/05/26 07:14:04;;;;;;;11.77;4.10;;;;;;;;;;5033622;28;20126;-79
2023/05/26 07:16:29;;;;;;;7.55;2.88;;;;;;;;;;5002578;28;20102;-79
2023/05/26 07:18:54;;;;;;;13.40;4.82;;;;;;;;;;5019675;28;20733;-79
2023/05/26 07:21:21;;;;;;;9.93;4.40;;;;;;;;;;5017553;28;20071;-79
2023/05/26 07:23:47;;;;;;;10.68;3.75;;;;;;;;;;5020476;28;20033;-79
2023/05/26 07:26:13;;;;;;;15.65;5.10;;;;;;;;;;5034049;28;20063;-78
2023/05/26 07:28:38;;;;;;;11.77;3.53;;;;;;;;;;5027431;28;20076;-79
2023/05/26 07:31:04;;;;;;;12.18;4.50;;;;;;;;;;5029784;28;20037;-79
2023/05/26 07:33:29;;;;;;;11.43;5.05;;;;;;;;;;5027014;28;20044;-79
2023/05/26 07:35:54;;;;;;;13.82;4.88;;;;;;;;;;5028643;28;20037;-79
2023/05/26 07:38:20;;;;;;;10.60;4.40;;;;;;;;;;5033730;28;20112;-79
2023/05/26 07:40:45;;;;;;;13.77;5.03;;;;;;;;;;5004875;28;20040;-79
2023/05/26 07:43:14;;;;;;;12.25;5.25;;;;;;;;;;5025033;28;20067;-79
2023/05/26 07:45:40;;;;;;;12.90;4.38;;;;;;;;;;5019198;28;20065;-79
2023/05/26 07:48:05;;;;;;;15.45;5.03;;;;;;;;;;5006782;28;20529;-79
2023/05/26 07:50:31;;;;;;;7.45;2.70;;;;;;;;;;5022529;28;20540;-79
2023/05/26 07:52:56;;;;;;;10.30;4.70;;;;;;;;;;5015311;28;20068;-79
2023/05/26 07:55:22;;;;;;;12.30;4.53;;;;;;;;;;5034064;28;20040;-78
2023/05/26 07:57:47;;;;;;;17.90;5.50;;;;;;;;;;5018741;28;20052;-79
2023/05/26 08:00:13;;;;;;;15.27;4.93;;;;;;;;;;5043189;28;20032;-79
2023/05/26 08:02:39;;;;;;;15.02;4.93;;;;;;;;;;5022791;28;20064;-78
2023/05/26 08:05:05;;;;;;;13.25;4.22;;;;;;;;;;5017601;28;20048;-79
2023/05/26 08:07:30;;;;;;;14.80;4.32;;;;;;;;;;5037183;28;20037;-79
2023/05/26 08:09:56;;;;;;;13.85;4.53;;;;;;;;;;5037541;28;20041;-79
2023/05/26 08:12:21;;;;;;;13.70;4.10;;;;;;;;;;5033099;28;20041;-78
2023/05/26 08:14:48;;;;;;;9.18;3.20;;;;;;;;;;5027370;28;20110;-79
2023/05/26 08:17:14;;;;;;;11.68;4.07;;;;;;;;;;5033156;28;20064;-79
2023/05/26 08:19:39;;;;;;;8.73;2.72;;;;;;;;;;5030609;28;20059;-78
2023/05/26 08:22:05;;;;;;;11.60;4.00;;;;;;;;;;5035259;28;20052;-78
2023/05/26 08:24:30;;;;;;;11.55;4.22;;;;;;;;;;5034899;28;20115;-78
2023/05/26 08:26:56;;;;;;;14.05;4.20;;;;;;;;;;5032416;28;20046;-78
2023/05/26 08:29:22;;;;;;;13.75;4.40;;;;;;;;;;5023280;28;20091;-78
2023/05/26 08:31:49;;;;;;;14.27;4.70;;;;;;;;;;5023745;28;20199;-78
2023/05/26 08:34:14;;;;;;;12.80;4.40;;;;;;;;;;4988475;28;20045;-79
2023/05/26 08:36:39;;;;;;;12.88;4.68;;;;;;;;;;5021771;28;20036;-78
2023/05/26 08:39:05;;;;;;;13.50;4.05;;;;;;;;;;5028656;28;20036;-78
2023/05/26 08:41:47;;;;;;;6.57;2.63;;;;;;;;;;5045306;28;20089;-79
2023/05/26 08:44:15;;;;;;;10.57;3.97;;;;;;;;;;5039504;28;20041;-78
2023/05/26 08:46:41;;;;;;;12.02;4.03;;;;;;;;;;4991877;28;20040;-78
2023/05/26 08:49:08;;;;;;;11.75;4.20;;;;;;;;;;5036454;28;20063;-78
2023/05/26 08:51:38;;;;;;;10.13;3.28;;;;;;;;;;5033227;28;20064;-79
2023/05/26 08:54:03;;;;;;;9.77;4.30;;;;;;;;;;5044297;28;20032;-79
2023/05/26 08:56:29;;;;;;;14.45;4.80;;;;;;;;;;5042545;28;20079;-79
2023/05/26 08:58:55;;;;;;;11.43;4.22;;;;;;;;;;5027371;28;20049;-78
2023/05/26 09:01:21;;;;;;;12.18;4.53;;;;;;;;;;5043573;28;20043;-78
2023/05/26 09:03:46;;;;;;;14.95;4.60;;;;;;;;;;5014052;28;20120;-79
2023/05/26 09:06:11;;;;;;;5.80;2.90;;;;;;;;;;5035281;28;20059;-79
2023/05/26 09:08:37;;;;;;;12.32;4.03;;;;;;;;;;5039925;28;20062;-78
2023/05/26 09:11:27;;;;;;;10.70;4.05;;;;;;;;;;5025268;28;20041;-78
2023/05/26 09:13:56;;;;;;;12.45;4.05;;;;;;;;;;5017312;28;20049;-78
2023/05/26 09:16:26;;;;;;;10.93;4.28;;;;;;;;;;5031428;28;20048;-79
2023/05/26 09:19:00;;;;;;;14.13;4.07;;;;;;;;;;5017953;28;20029;-79
2023/05/26 09:21:26;;;;;;;16.42;4.22;;;;;;;;;;5034444;28;20041;-78
2023/05/26 09:23:56;;;;;;;9.40;3.15;;;;;;;;;;5028797;28;20036;-79
2023/05/26 09:26:35;;;;;;;18.23;4.80;;;;;;;;;;5017403;28;20513;-79
2023/05/26 09:29:02;;;;;;;12.73;5.10;;;;;;;;;;5038324;28;20036;-79
2023/05/26 09:31:38;;;;;;;11.10;4.35;;;;;;;;;;5038102;28;20516;-79
2023/05/26 09:34:04;;;;;;;11.27;4.57;;;;;;;;;;5033812;28;20040;-79
2023/05/26 09:36:36;;;;;;;10.57;4.15;;;;;;;;;;5030981;28;20063;-78
2023/05/26 09:39:02;;;;;;;11.85;4.35;;;;;;;;;;5051747;28;20033;-78
2023/05/26 09:41:45;;;;;;;9.68;3.08;;;;;;;;;;5012770;28;20124;-78
2023/05/26 09:44:12;;;;;;;11.50;4.57;;;;;;;;;;5035317;28;20028;-78
2023/05/26 09:46:40;;;;;;;13.10;5.28;;;;;;;;;;5040818;28;20060;-79
2023/05/26 09:49:16;;;;;;;13.38;4.32;;;;;;;;;;5021816;28;20106;-79
2023/05/26 09:51:43;;;;;;;11.32;4.43;;;;;;;;;;5023820;28;20511;-79
2023/05/26 09:54:10;;;;;;;9.70;4.15;;;;;;;;;;5038781;28;20146;-79
2023/05/26 09:56:40;;;;;;;13.88;4.78;;;;;;;;;;5040123;28;20532;-79
2023/05/26 09:59:08;;;;;;;14.77;4.78;;;;;;;;;;5047524;28;20036;-78
2023/05/26 10:01:39;;;;;;;14.25;4.85;;;;;;;;;;5032533;28;20570;-78
2023/05/26 10:04:06;;;;;;;12.43;5.00;;;;;;;;;;5005872;28;20049;-79
2023/05/26 10:06:35;;;;;;;13.30;4.88;;;;;;;;;;5016375;28;20040;-79
2023/05/26 10:09:02;;;;;;;15.85;4.72;;;;;;;;;;5039208;28;20033;-79
2023/05/26 10:11:29;;;;;;;9.98;4.00;;;;;;;;;;5042437;28;20048;-79
2023/05/26 10:13:55;;;;;;;6.90;3.20;;;;;;;;;;5033026;28;20048;-79
2023/05/26 10:16:22;;;;;;;13.52;5.18;;;;;;;;;;5037020;28;20194;-78
2023/05/26 10:18:48;;;;;;;13.48;5.10;;;;;;;;;;5035049;28;20048;-79
2023/05/26 10:21:17;;;;;;;13.50;5.53;;;;;;;;;;5023539;28;20033;-79
2023/05/26 10:23:49;;;;;;;15.05;4.93;;;;;;;;;;5045657;28;20040;-79
2023/05/26 10:26:26;;;;;;;11.57;4.15;;;;;;;;;;5006797;28;20478;-79
2023/05/26 10:29:03;;;;;;;11.13;4.70;;;;;;;;;;5036217;28;20052;-79
2023/05/26 10:31:30;;;;;;;7.70;3.20;;;;;;;;;;5015939;28;20057;-78
2023/05/26 10:33:56;;;;;;;14.35;4.93;;;;;;;;;;5036928;28;20044;-78
2023/05/26 10:36:22;;;;;;;9.13;3.58;;;;;;;;;;5015897;28;20044;-78
2023/05/26 10:38:48;;;;;;;9.80;3.58;;;;;;;;;;5012555;28;20045;-78
2023/05/26 10:41:34;;;;;;;8.02;3.45;;;;;;;;;;5039333;28;20036;-78
2023/05/26 10:44:01;;;;;;;9.43;3.28;;;;;;;;;;5029439;28;20049;-78
2023/05/26 10:46:39;;;;;;;9.10;4.10;;;;;;;;;;5036520;28;20032;-78
2023/05/26 10:49:18;;;;;;;8.25;3.65;;;;;;;;;;5020560;28;20090;-78
2023/05/26 10:51:54;;;;;;;15.57;4.85;;;;;;;;;;5025162;28;20033;-78
2023/05/26 10:54:24;;;;;;;14.40;4.60;;;;;;;;;;5027154;28;20101;-78
2023/05/26 10:56:51;;;;;;;10.88;5.05;;;;;;;;;;5026228;28;20036;-78
2023/05/26 10:59:21;;;;;;;14.32;4.70;;;;;;;;;;5031707;28;20033;-78
2023/05/26 11:01:51;;;;;;;12.13;4.70;;;;;;;;;;5027753;28;20032;-79
2023/05/26 11:04:17;;;;;;;15.48;4.93;;;;;;;;;;5046048;28;20036;-79
2023/05/26 11:06:46;;;;;;;15.43;4.78;;;;;;;;;;5034811;28;20111;-78
2023/05/26 11:09:12;;;;;;;14.82;4.32;;;;;;;;;;5025507;28;20460;-78
2023/05/26 11:12:03;;;;;;;10.82;4.43;;;;;;;;;;5031276;28;20037;-77
2023/05/26 11:14:33;;;;;;;13.20;4.88;;;;;;;;;;5011278;28;20045;-78
2023/05/26 11:17:03;;;;;;;7.88;3.30;;;;;;;;;;5000263;28;20659;-79
2023/05/26 11:19:39;;;;;;;13.52;4.53;;;;;;;;;;5012764;28;20077;-79
2023/05/26 11:22:08;;;;;;;13.63;4.47;;;;;;;;;;5019519;28;20470;-79
2023/05/26 11:24:34;;;;;;;12.13;4.72;;;;;;;;;;5007986;28;20053;-79
2023/05/26 11:27:01;;;;;;;10.77;4.70;;;;;;;;;;5036928;28;20076;-78
2023/05/26 11:29:27;;;;;;;13.75;4.63;;;;;;;;;;5043590;28;20049;-79
2023/05/26 11:31:53;;;;;;;11.38;4.63;;;;;;;;;;5005170;28;20045;-78
2023/05/26 11:34:20;;;;;;;15.95;5.43;;;;;;;;;;5023995;28;20036;-78
2023/05/26 11:36:51;;;;;;;13.07;4.90;;;;;;;;;;5043620;28;20044;-79
2023/05/26 11:39:17;;;;;;;5.65;2.42;;;;;;;;;;5035314;28;20040;-79
2023/05/26 11:41:46;;;;;;;10.15;4.47;;;;;;;;;;5032308;28;20037;-79
2023/05/26 11:44:15;;;;;;;11.93;4.80;;;;;;;;;;5007374;28;20032;-79
2023/05/26 11:46:42;;;;;;;11.98;3.45;;;;;;;;;;5028389;28;20041;-79
2023/05/26 11:49:17;;;;;;;8.88;3.15;;;;;;;;;;5030246;28;20123;-78
2023/05/26 11:51:52;;;;;;;15.85;4.78;;;;;;;;;;5019942;28;20040;-78
2023/05/26 11:54:19;;;;;;;7.70;3.63;;;;;;;;;;5008745;28;20082;-78
2023/05/26 11:56:46;;;;;;;7.53;3.95;;;;;;;;;;5024079;28;20041;-79
2023/05/26 11:59:18;;;;;;;13.10;5.05;;;;;;;;;;5032338;28;20049;-79
2023/05/26 12:01:44;;;;;;;16.10;4.93;;;;;;;;;;5028897;28;20064;-78
2023/05/26 12:04:09;;;;;;;14.15;4.72;;;;;;;;;;5019642;28;20037;-79
2023/05/26 12:06:40;;;;;;;14.82;4.57;;;;;;;;;;5010813;28;20040;-79
2023/05/26 12:09:22;;;;;;;13.00;4.35;;;;;;;;;;4998264;28;20037;-78
2023/05/26 12:11:50;;;;;;;12.93;4.85;;;;;;;;;;5032989;28;20047;-78
2023/05/26 12:14:16;;;;;;;13.55;4.93;;;;;;;;;;5031922;28;20037;-78
2023/05/26 12:16:44;;;;;;;13.07;4.28;;;;;;;;;;4998903;28;20041;-78
2023/05/26 12:19:11;;;;;;;7.95;3.25;;;;;;;;;;5038872;28;20129;-79
2023/05/26 12:21:44;;;;;;;15.00;5.18;;;;;;;;;;5020696;28;20060;-78
2023/05/26 12:24:09;;;;;;;11.45;4.20;;;;;;;;;;5043631;28;20432;-78
2023/05/26 12:26:35;;;;;;;9.65;3.60;;;;;;;;;;5036163;28;20033;-79
2023/05/26 12:29:12;;;;;;;14.27;4.47;;;;;;;;;;5029817;28;20037;-78
2023/05/26 12:31:46;;;;;;;12.52;4.90;;;;;;;;;;5021710;28;20116;-79
2023/05/26 12:34:14;;;;;;;16.58;5.03;;;;;;;;;;5023792;28;20105;-79
2023/05/26 12:36:40;;;;;;;13.32;4.60;;;;;;;;;;5015547;28;20068;-79
2023/05/26 12:39:06;;;;;;;14.90;4.65;;;;;;;;;;5022527;28;20044;-79
2023/05/26 12:41:31;;;;;;;14.93;4.90;;;;;;;;;;4986937;28;20077;-79
2023/05/26 12:43:59;;;;;;;14.15;4.38;;;;;;;;;;5033387;28;20086;-79
2023/05/26 12:46:25;;;;;;;13.48;5.00;;;;;;;;;;5015479;28;20049;-79
2023/05/26 12:48:50;;;;;;;6.95;3.00;;;;;;;;;;5025282;28;20061;-79
2023/05/26 12:51:16;;;;;;;10.52;3.58;;;;;;;;;;5022332;28;20029;-79
2023/05/26 12:53:43;;;;;;;9.55;3.60;;;;;;;;;;5018832;28;20528;-79
2023/05/26 12:56:11;;;;;;;8.98;3.55;;;;;;;;;;5040904;28;20040;-79
2023/05/26 12:58:37;;;;;;;14.73;4.70;;;;;;;;;;5035694;28;20053;-79
2023/05/26 13:01:02;;;;;;;14.60;4.72;;;;;;;;;;5026746;28;20048;-79
2023/05/26 13:03:28;;;;;;;15.50;4.82;;;;;;;;;;5042048;28;20036;-79
2023/05/26 13:05:53;;;;;;;9.82;3.25;;;;;;;;;;5024435;28;20045;-79
2023/05/26 13:08:19;;;;;;;12.80;4.72;;;;;;;;;;5031981;28;20064;-79
2023/05/26 13:10:44;;;;;;;9.77;3.30;;;;;;;;;;5024013;28;20037;-79
2023/05/26 13:13:13;;;;;;;13.25;4.82;;;;;;;;;;5042853;28;20049;-79
2023/05/26 13:15:40;;;;;;;12.15;4.43;;;;;;;;;;5029157;28;20483;-79
2023/05/26 13:18:05;;;;;;;13.80;5.05;;;;;;;;;;5041030;28;20067;-78
2023/05/26 13:20:31;;;;;;;12.80;4.28;;;;;;;;;;5038569;28;20045;-79
2023/05/26 13:22:56;;;;;;;9.23;3.42;;;;;;;;;;5001199;28;20517;-79
2023/05/26 13:25:22;;;;;;;7.70;2.92;;;;;;;;;;5000646;28;20102;-79
2023/05/26 13:27:48;;;;;;;10.73;4.20;;;;;;;;;;5013750;28;20138;-79
2023/05/26 13:30:14;;;;;;;13.23;4.70;;;;;;;;;;5035371;28;20087;-79
2023/05/26 13:32:40;;;;;;;15.82;4.78;;;;;;;;;;5018402;28;20060;-79
2023/05/26 13:35:06;;;;;;;12.43;4.38;;;;;;;;;;5022412;28;20029;-79
2023/05/26 13:37:32;;;;;;;13.57;4.75;;;;;;;;;;5039671;28;20519;-78
2023/05/26 13:39:57;;;;;;;11.65;4.03;;;;;;;;;;5018483;28;20096;-79
2023/05/26 13:42:23;;;;;;;7.78;3.22;;;;;;;;;;5025779;28;20048;-79
2023/05/26 13:44:51;;;;;;;11.30;4.25;;;;;;;;;;5023801;28;20098;-79
2023/05/26 13:47:17;;;;;;;10.43;3.88;;;;;;;;;;5022124;28;20541;-79
2023/05/26 13:49:43;;;;;;;11.05;4.28;;;;;;;;;;5017595;28;20025;-79
2023/05/26 13:52:08;;;;;;;13.40;3.83;;;;;;;;;;5027965;28;20079;-79
2023/05/26 13:54:33;;;;;;;10.52;3.97;;;;;;;;;;5005439;28;20112;-79
2023/05/26 13:56:59;;;;;;;8.52;3.47;;;;;;;;;;5018861;28;20036;-79
2023/05/26 13:59:24;;;;;;;11.57;3.90;;;;;;;;;;4999577;28;20056;-79
2023/05/26 14:01:50;;;;;;;11.10;3.83;;;;;;;;;;5037822;28;20052;-79
2023/05/26 14:04:15;;;;;;;11.43;3.78;;;;;;;;;;5008887;28;20034;-79
2023/05/26 14:06:41;;;;;;;10.15;3.92;;;;;;;;;;5020010;28;20049;-79
2023/05/26 14:09:10;;;;;;;8.50;3.35;;;;;;;;;;5026487;28;20029;-78
2023/05/26 14:11:38;;;;;;;9.47;3.63;;;;;;;;;;5008187;28;20042;-79
2023/05/26 14:14:03;;;;;;;12.32;3.85;;;;;;;;;;5026181;28;20084;-79
2023/05/26 14:16:28;;;;;;;7.57;3.35;;;;;;;;;;5015978;28;20040;-79
2023/05/26 14:18:54;;;;;;;8.55;3.17;;;;;;;;;;5016569;28;20054;-79
2023/05/26 14:21:19;;;;;;;5.22;2.40;;;;;;;;;;5008589;28;20033;-79
2023/05/26 14:23:45;;;;;;;5.88;2.78;;;;;;;;;;5030134;28;20178;-79
2023/05/26 14:26:10;;;;;;;12.00;3.88;;;;;;;;;;5040648;28;20545;-79
2023/05/26 14:28:36;;;;;;;9.27;3.17;;;;;;;;;;5039524;28;20045;-79
2023/05/26 14:31:01;;;;;;;7.70;3.22;;;;;;;;;;5034572;28;20045;-79
2023/05/26 14:33:26;;;;;;;9.82;3.22;;;;;;;;;;5006653;28;20123;-79